createdAt,value
2022-12-11T00:00:09.691Z,986.49
2022-12-11T00:01:09.710Z,986.49
2022-12-11T00:02:09.739Z,986.51
2022-12-11T00:03:15.385Z,986.47
2022-12-11T00:04:10.649Z,986.49
2022-12-11T00:05:09.932Z,986.48
2022-12-11T00:06:09.628Z,986.49
2022-12-11T00:07:10.594Z,986.51
2022-12-11T00:08:09.609Z,986.48
2022-12-11T00:09:09.618Z,986.50
2022-12-11T00:10:09.888Z,986.52
2022-12-11T00:11:09.559Z,986.50
2022-12-11T00:12:09.578Z,986.49
2022-12-11T00:13:09.538Z,986.52
2022-12-11T00:14:09.524Z,986.45
2022-12-11T00:15:09.886Z,986.42
2022-12-11T00:16:09.567Z,986.42
2022-12-11T00:17:09.574Z,986.46
2022-12-11T00:18:09.476Z,986.43
2022-12-11T00:19:09.500Z,986.48
2022-12-11T00:20:09.447Z,986.43
2022-12-11T00:21:09.460Z,986.41
2022-12-11T00:22:09.466Z,986.41
2022-12-11T00:23:09.416Z,986.46
2022-12-11T00:24:09.481Z,986.40
2022-12-11T00:25:09.752Z,986.42
2022-12-11T00:26:09.367Z,986.39
2022-12-11T00:27:09.395Z,986.39
2022-12-11T00:28:10.288Z,986.41
2022-12-11T00:29:09.334Z,986.40
2022-12-11T00:30:09.336Z,986.39
2022-12-11T00:31:09.319Z,986.37
2022-12-11T00:32:09.356Z,986.40
2022-12-11T00:33:09.295Z,986.35
2022-12-11T00:34:09.314Z,986.34
2022-12-11T00:35:09.541Z,986.39
2022-12-11T00:36:09.244Z,986.34
2022-12-11T00:37:09.303Z,986.32
2022-12-11T00:38:09.223Z,986.34
2022-12-11T00:39:09.214Z,986.34
2022-12-11T00:40:09.214Z,986.35
2022-12-11T00:41:09.222Z,986.33
2022-12-11T00:42:09.191Z,986.33
2022-12-11T00:43:09.170Z,986.34
2022-12-11T00:44:09.168Z,986.33
2022-12-11T00:45:09.546Z,986.36
2022-12-11T00:46:09.155Z,986.37
2022-12-11T00:47:09.145Z,986.37
2022-12-11T00:48:09.138Z,986.42
2022-12-11T00:49:09.091Z,986.41
2022-12-11T00:50:09.083Z,986.43
2022-12-11T00:51:09.067Z,986.39
2022-12-11T00:52:09.077Z,986.39
2022-12-11T00:53:09.060Z,986.35
2022-12-11T00:54:09.030Z,986.40
2022-12-11T00:55:09.518Z,986.36
2022-12-11T00:56:09.013Z,986.40
2022-12-11T00:57:09.021Z,986.42
2022-12-11T00:58:08.966Z,986.38
2022-12-11T00:59:08.969Z,986.45
2022-12-11T01:00:08.949Z,986.47
2022-12-11T01:01:09.015Z,986.45
2022-12-11T01:02:08.947Z,986.41
2022-12-11T01:03:08.967Z,986.44
2022-12-11T01:04:08.887Z,986.44
2022-12-11T01:05:09.213Z,986.43
2022-12-11T01:06:08.879Z,986.42
2022-12-11T01:07:08.903Z,986.40
2022-12-11T01:08:08.877Z,986.40
2022-12-11T01:09:09.038Z,986.40
2022-12-11T01:10:08.871Z,986.41
2022-12-11T01:11:08.806Z,986.47
2022-12-11T01:12:09.150Z,986.46
2022-12-11T01:13:08.789Z,986.42
2022-12-11T01:14:08.765Z,986.51
2022-12-11T01:15:09.100Z,986.46
2022-12-11T01:16:08.740Z,986.54
2022-12-11T01:17:08.779Z,986.50
2022-12-11T01:18:08.714Z,986.50
2022-12-11T01:19:08.717Z,986.54
2022-12-11T01:20:09.564Z,986.50
2022-12-11T01:21:08.946Z,986.55
2022-12-11T01:22:08.704Z,986.54
2022-12-11T01:23:08.782Z,986.54
2022-12-11T01:24:08.648Z,986.55
2022-12-11T01:25:09.147Z,986.52
2022-12-11T01:26:08.874Z,986.53
2022-12-11T01:27:08.638Z,986.51
2022-12-11T01:28:08.814Z,986.53
2022-12-11T01:29:08.860Z,986.55
2022-12-11T01:30:08.713Z,986.55
2022-12-11T01:31:08.848Z,986.54
2022-12-11T01:32:08.568Z,986.53
2022-12-11T01:33:08.538Z,986.52
2022-12-11T01:34:08.651Z,986.51
2022-12-11T01:35:08.810Z,986.53
2022-12-11T01:36:08.588Z,986.45
2022-12-11T01:37:08.819Z,986.47
2022-12-11T01:38:08.470Z,986.46
2022-12-11T01:39:08.453Z,986.43
2022-12-11T01:40:08.443Z,986.44
2022-12-11T01:41:08.440Z,986.43
2022-12-11T01:42:08.449Z,986.46
2022-12-11T01:43:08.420Z,986.47
2022-12-11T01:44:08.392Z,986.44
2022-12-11T01:45:08.608Z,986.41
2022-12-11T01:46:08.417Z,986.45
2022-12-11T01:47:08.409Z,986.42
2022-12-11T01:48:08.339Z,986.43
2022-12-11T01:49:08.338Z,986.39
2022-12-11T01:50:08.331Z,986.42
2022-12-11T01:51:08.450Z,986.43
2022-12-11T01:52:08.331Z,986.43
2022-12-11T01:53:08.278Z,986.41
2022-12-11T01:54:08.270Z,986.43
2022-12-11T01:55:08.582Z,986.41
2022-12-11T01:56:08.244Z,986.42
2022-12-11T01:57:08.255Z,986.37
2022-12-11T01:58:08.219Z,986.38
2022-12-11T01:59:08.208Z,986.36
2022-12-11T02:00:08.192Z,986.40
2022-12-11T02:01:08.265Z,986.39
2022-12-11T02:02:08.243Z,986.34
2022-12-11T02:03:08.158Z,986.29
2022-12-11T02:04:08.145Z,986.35
2022-12-11T02:05:08.400Z,986.36
2022-12-11T02:06:08.121Z,986.34
2022-12-11T02:07:08.136Z,986.38
2022-12-11T02:08:08.148Z,986.36
2022-12-11T02:09:08.078Z,986.37
2022-12-11T02:10:08.076Z,986.35
2022-12-11T02:11:08.060Z,986.35
2022-12-11T02:12:08.077Z,986.33
2022-12-11T02:13:08.043Z,986.31
2022-12-11T02:14:08.035Z,986.31
2022-12-11T02:15:08.312Z,986.26
2022-12-11T02:16:08.055Z,986.25
2022-12-11T02:17:08.006Z,986.21
2022-12-11T02:18:07.977Z,986.21
2022-12-11T02:19:07.957Z,986.18
2022-12-11T02:20:07.932Z,986.24
2022-12-11T02:21:07.948Z,986.24
2022-12-11T02:22:07.923Z,986.23
2022-12-11T02:23:07.928Z,986.29
2022-12-11T02:24:07.912Z,986.33
2022-12-11T02:25:07.984Z,986.31
2022-12-11T02:26:07.884Z,986.30
2022-12-11T02:27:07.868Z,986.30
2022-12-11T02:28:07.892Z,986.33
2022-12-11T02:29:07.823Z,986.28
2022-12-11T02:30:07.816Z,986.32
2022-12-11T02:31:07.873Z,986.22
2022-12-11T02:32:07.796Z,986.25
2022-12-11T02:33:07.804Z,986.27
2022-12-11T02:34:07.761Z,986.30
2022-12-11T02:35:07.890Z,986.24
2022-12-11T02:36:07.742Z,986.25
2022-12-11T02:37:07.729Z,986.21
2022-12-11T02:38:07.740Z,986.22
2022-12-11T02:39:07.708Z,986.24
2022-12-11T02:40:07.713Z,986.18
2022-12-11T02:41:07.683Z,986.23
2022-12-11T02:42:07.724Z,986.21
2022-12-11T02:43:07.691Z,986.23
2022-12-11T02:44:07.640Z,986.23
2022-12-11T02:45:07.788Z,986.16
2022-12-11T02:46:07.685Z,986.20
2022-12-11T02:47:07.619Z,986.17
2022-12-11T02:48:07.608Z,986.24
2022-12-11T02:49:07.569Z,986.24
2022-12-11T02:50:07.568Z,986.24
2022-12-11T02:51:07.549Z,986.29
2022-12-11T02:52:07.546Z,986.28
2022-12-11T02:53:07.589Z,986.28
2022-12-11T02:54:07.518Z,986.28
2022-12-11T02:55:07.698Z,986.26
2022-12-11T02:56:07.489Z,986.25
2022-12-11T02:57:07.476Z,986.29
2022-12-11T02:58:07.485Z,986.22
2022-12-11T02:59:07.495Z,986.26
2022-12-11T03:00:07.458Z,986.22
2022-12-11T03:01:07.456Z,986.22
2022-12-11T03:02:07.426Z,986.21
2022-12-11T03:03:07.426Z,986.19
2022-12-11T03:04:07.396Z,986.22
2022-12-11T03:05:07.525Z,986.16
2022-12-11T03:06:07.365Z,986.16
2022-12-11T03:07:07.345Z,986.16
2022-12-11T03:08:07.428Z,986.18
2022-12-11T03:09:07.315Z,986.15
2022-12-11T03:10:07.304Z,986.15
2022-12-11T03:11:07.295Z,986.12
2022-12-11T03:12:07.284Z,986.09
2022-12-11T03:13:07.314Z,986.13
2022-12-11T03:14:07.272Z,986.08
2022-12-11T03:15:07.255Z,986.08
2022-12-11T03:16:07.290Z,986.08
2022-12-11T03:17:07.230Z,986.04
2022-12-11T03:18:07.232Z,986.08
2022-12-11T03:19:07.192Z,986.06
2022-12-11T03:20:07.182Z,986.03
2022-12-11T03:21:07.183Z,986.02
2022-12-11T03:22:07.175Z,986.01
2022-12-11T03:23:07.175Z,986.07
2022-12-11T03:24:07.142Z,986.08
2022-12-11T03:25:07.132Z,986.06
2022-12-11T03:26:07.130Z,986.02
2022-12-11T03:27:11.150Z,986.08
2022-12-11T03:28:07.112Z,986.05
2022-12-11T03:29:07.089Z,986.08
2022-12-11T03:30:07.099Z,986.09
2022-12-11T03:31:07.100Z,986.11
2022-12-11T03:32:07.041Z,986.10
2022-12-11T03:33:07.042Z,986.13
2022-12-11T03:34:07.009Z,986.12
2022-12-11T03:35:06.989Z,986.13
2022-12-11T03:36:06.992Z,986.13
2022-12-11T03:37:06.985Z,986.14
2022-12-11T03:38:07.001Z,986.15
2022-12-11T03:39:06.939Z,986.13
2022-12-11T03:40:06.929Z,986.11
2022-12-11T03:41:06.909Z,986.16
2022-12-11T03:42:06.920Z,986.16
2022-12-11T03:43:06.927Z,986.14
2022-12-11T03:44:06.888Z,986.15
2022-12-11T03:45:06.857Z,986.15
2022-12-11T03:46:06.887Z,986.19
2022-12-11T03:47:06.848Z,986.15
2022-12-11T03:48:06.866Z,986.17
2022-12-11T03:49:06.818Z,986.22
2022-12-11T03:50:06.842Z,986.27
2022-12-11T03:51:06.787Z,986.16
2022-12-11T03:52:06.789Z,986.23
2022-12-11T03:53:06.796Z,986.23
2022-12-11T03:54:06.789Z,986.25
2022-12-11T03:55:06.736Z,986.23
2022-12-11T03:56:06.738Z,986.27
2022-12-11T03:57:06.737Z,986.26
2022-12-11T03:58:06.735Z,986.24
2022-12-11T03:59:06.694Z,986.26
2022-12-11T04:00:06.677Z,986.21
2022-12-11T04:01:06.663Z,986.24
2022-12-11T04:02:06.695Z,986.28
2022-12-11T04:03:12.624Z,986.26
2022-12-11T04:04:07.694Z,986.27
2022-12-11T04:05:06.622Z,986.22
2022-12-11T04:06:06.612Z,986.26
2022-12-11T04:07:06.594Z,986.27
2022-12-11T04:08:06.740Z,986.28
2022-12-11T04:09:06.562Z,986.26
2022-12-11T04:10:06.564Z,986.22
2022-12-11T04:11:06.543Z,986.26
2022-12-11T04:12:06.540Z,986.26
2022-12-11T04:13:06.544Z,986.31
2022-12-11T04:14:06.503Z,986.26
2022-12-11T04:15:06.490Z,986.31
2022-12-11T04:16:06.501Z,986.29
2022-12-11T04:17:06.463Z,986.29
2022-12-11T04:18:06.481Z,986.27
2022-12-11T04:19:06.453Z,986.31
2022-12-11T04:20:06.431Z,986.30
2022-12-11T04:21:06.411Z,986.29
2022-12-11T04:22:06.402Z,986.28
2022-12-11T04:23:06.418Z,986.29
2022-12-11T04:24:06.380Z,986.26
2022-12-11T04:25:06.369Z,986.29
2022-12-11T04:26:06.357Z,986.29
2022-12-11T04:27:06.353Z,986.26
2022-12-11T04:28:06.369Z,986.24
2022-12-11T04:29:06.313Z,986.27
2022-12-11T04:30:06.301Z,986.26
2022-12-11T04:31:06.362Z,986.27
2022-12-11T04:32:06.284Z,986.24
2022-12-11T04:33:06.321Z,986.27
2022-12-11T04:34:06.248Z,986.22
2022-12-11T04:35:06.266Z,986.18
2022-12-11T04:36:06.229Z,986.18
2022-12-11T04:37:06.239Z,986.20
2022-12-11T04:38:06.229Z,986.12
2022-12-11T04:39:06.198Z,986.19
2022-12-11T04:40:06.177Z,986.21
2022-12-11T04:41:06.156Z,986.22
2022-12-11T04:42:06.157Z,986.19
2022-12-11T04:43:06.166Z,986.19
2022-12-11T04:44:06.136Z,986.09
2022-12-11T04:45:06.106Z,986.15
2022-12-11T04:46:06.167Z,986.18
2022-12-11T04:47:06.114Z,986.13
2022-12-11T04:48:06.108Z,986.10
2022-12-11T04:49:06.064Z,986.12
2022-12-11T04:50:06.063Z,986.05
2022-12-11T04:51:06.048Z,986.08
2022-12-11T04:52:06.024Z,986.06
2022-12-11T04:53:06.046Z,986.04
2022-12-11T04:54:06.005Z,986.03
2022-12-11T04:55:05.987Z,986.07
2022-12-11T04:56:05.973Z,986.05
2022-12-11T04:57:05.973Z,986.07
2022-12-11T04:58:05.984Z,986.13
2022-12-11T04:59:05.933Z,986.09
2022-12-11T05:00:05.945Z,986.08
2022-12-11T05:01:05.907Z,986.09
2022-12-11T05:02:05.936Z,986.10
2022-12-11T05:03:06.013Z,986.12
2022-12-11T05:04:05.883Z,986.08
2022-12-11T05:05:05.857Z,986.12
2022-12-11T05:06:05.841Z,986.08
2022-12-11T05:07:05.841Z,986.17
2022-12-11T05:08:05.890Z,986.12
2022-12-11T05:09:05.812Z,986.06
2022-12-11T05:10:05.806Z,986.07
2022-12-11T05:11:05.781Z,986.09
2022-12-11T05:12:05.790Z,986.10
2022-12-11T05:13:05.773Z,986.08
2022-12-11T05:14:05.794Z,986.06
2022-12-11T05:15:05.741Z,986.09
2022-12-11T05:16:05.793Z,986.09
2022-12-11T05:17:05.728Z,986.10
2022-12-11T05:18:05.702Z,986.08
2022-12-11T05:19:05.722Z,986.09
2022-12-11T05:20:05.684Z,986.09
2022-12-11T05:21:05.667Z,986.10
2022-12-11T05:22:05.654Z,986.06
2022-12-11T05:23:05.648Z,986.09
2022-12-11T05:24:05.658Z,986.13
2022-12-11T05:25:05.618Z,986.10
2022-12-11T05:26:05.611Z,986.09
2022-12-11T05:27:05.589Z,986.08
2022-12-11T05:28:05.577Z,986.08
2022-12-11T05:29:05.588Z,986.05
2022-12-11T05:30:05.560Z,986.04
2022-12-11T05:31:05.583Z,986.01
2022-12-11T05:32:05.525Z,986.00
2022-12-11T05:33:05.507Z,985.96
2022-12-11T05:34:05.526Z,985.99
2022-12-11T05:35:05.487Z,985.98
2022-12-11T05:36:05.475Z,986.00
2022-12-11T05:37:05.476Z,985.97
2022-12-11T05:38:05.447Z,985.97
2022-12-11T05:39:05.466Z,985.99
2022-12-11T05:40:05.415Z,985.94
2022-12-11T05:41:05.407Z,985.93
2022-12-11T05:42:05.404Z,985.96
2022-12-11T05:43:05.378Z,985.91
2022-12-11T05:44:05.406Z,985.97
2022-12-11T05:45:05.366Z,985.97
2022-12-11T05:46:05.666Z,985.95
2022-12-11T05:47:05.334Z,985.98
2022-12-11T05:48:05.341Z,986.00
2022-12-11T05:49:05.340Z,985.94
2022-12-11T05:50:05.296Z,985.94
2022-12-11T05:51:05.296Z,985.95
2022-12-11T05:52:05.266Z,985.92
2022-12-11T05:53:05.252Z,985.94
2022-12-11T05:54:05.373Z,985.89
2022-12-11T05:55:05.246Z,985.86
2022-12-11T05:56:05.220Z,985.87
2022-12-11T05:57:05.222Z,985.85
2022-12-11T05:58:05.196Z,985.86
2022-12-11T05:59:05.246Z,985.90
2022-12-11T06:00:05.166Z,985.89
2022-12-11T06:01:05.154Z,985.85
2022-12-11T06:02:05.238Z,985.87
2022-12-11T06:03:05.219Z,985.84
2022-12-11T06:04:05.168Z,985.91
2022-12-11T06:05:05.177Z,985.88
2022-12-11T06:06:05.100Z,985.90
2022-12-11T06:07:05.085Z,985.85
2022-12-11T06:08:05.127Z,985.82
2022-12-11T06:09:05.089Z,985.85
2022-12-11T06:10:05.042Z,985.86
2022-12-11T06:11:05.038Z,985.83
2022-12-11T06:12:05.020Z,985.82
2022-12-11T06:13:05.000Z,985.79
2022-12-11T06:14:05.036Z,985.81
2022-12-11T06:15:05.032Z,985.79
2022-12-11T06:16:05.025Z,985.81
2022-12-11T06:17:05.462Z,985.83
2022-12-11T06:18:04.943Z,985.85
2022-12-11T06:19:04.968Z,985.85
2022-12-11T06:20:04.916Z,985.80
2022-12-11T06:21:04.908Z,985.80
2022-12-11T06:22:04.900Z,985.80
2022-12-11T06:23:04.887Z,985.80
2022-12-11T06:24:04.889Z,985.76
2022-12-11T06:25:04.855Z,985.75
2022-12-11T06:26:04.836Z,985.75
2022-12-11T06:27:04.836Z,985.74
2022-12-11T06:28:04.826Z,985.69
2022-12-11T06:29:09.030Z,985.70
2022-12-11T06:30:05.794Z,985.70
2022-12-11T06:31:04.794Z,985.71
2022-12-11T06:32:04.813Z,985.70
2022-12-11T06:33:04.763Z,985.69
2022-12-11T06:34:04.766Z,985.72
2022-12-11T06:35:04.735Z,985.67
2022-12-11T06:36:04.714Z,985.69
2022-12-11T06:37:04.707Z,985.72
2022-12-11T06:38:04.692Z,985.66
2022-12-11T06:39:04.714Z,985.71
2022-12-11T06:40:04.672Z,985.72
2022-12-11T06:41:04.669Z,985.68
2022-12-11T06:42:04.637Z,985.68
2022-12-11T06:43:04.634Z,985.67
2022-12-11T06:44:04.635Z,985.66
2022-12-11T06:45:04.633Z,985.66
2022-12-11T06:46:04.710Z,985.66
2022-12-11T06:47:04.605Z,985.69
2022-12-11T06:48:04.593Z,985.68
2022-12-11T06:49:04.591Z,985.68
2022-12-11T06:50:04.534Z,985.69
2022-12-11T06:51:04.523Z,985.69
2022-12-11T06:52:04.479Z,985.71
2022-12-11T06:53:04.442Z,985.70
2022-12-11T06:54:04.532Z,985.66
2022-12-11T06:55:04.491Z,985.70
2022-12-11T06:56:04.478Z,985.71
2022-12-11T06:57:04.461Z,985.73
2022-12-11T06:58:04.441Z,985.70
2022-12-11T06:59:07.546Z,985.71
2022-12-11T07:00:04.411Z,985.74
2022-12-11T07:01:04.439Z,985.74
2022-12-11T07:02:04.372Z,985.73
2022-12-11T07:03:04.419Z,985.70
2022-12-11T07:04:04.344Z,985.76
2022-12-11T07:05:04.309Z,985.78
2022-12-11T07:06:04.279Z,985.75
2022-12-11T07:07:04.287Z,985.74
2022-12-11T07:08:04.297Z,985.71
2022-12-11T07:09:04.288Z,985.76
2022-12-11T07:10:08.002Z,985.78
2022-12-11T07:11:04.227Z,985.78
2022-12-11T07:12:04.210Z,985.78
2022-12-11T07:13:04.201Z,985.75
2022-12-11T07:14:04.257Z,985.79
2022-12-11T07:15:04.177Z,985.79
2022-12-11T07:16:04.210Z,985.84
2022-12-11T07:17:04.162Z,985.83
2022-12-11T07:18:04.135Z,985.78
2022-12-11T07:19:04.159Z,985.85
2022-12-11T07:20:04.107Z,985.81
2022-12-11T07:21:04.111Z,985.83
2022-12-11T07:22:04.083Z,985.88
2022-12-11T07:23:04.074Z,985.88
2022-12-11T07:24:04.099Z,985.90
2022-12-11T07:25:04.061Z,985.91
2022-12-11T07:26:04.048Z,985.95
2022-12-11T07:27:04.032Z,985.93
2022-12-11T07:28:04.004Z,985.89
2022-12-11T07:29:04.042Z,985.88
2022-12-11T07:30:03.989Z,985.86
2022-12-11T07:31:03.975Z,985.87
2022-12-11T07:32:04.070Z,985.91
2022-12-11T07:33:04.005Z,985.85
2022-12-11T07:34:03.967Z,985.83
2022-12-11T07:35:03.937Z,985.84
2022-12-11T07:36:03.922Z,985.88
2022-12-11T07:37:03.928Z,985.87
2022-12-11T07:38:03.895Z,985.90
2022-12-11T07:39:03.920Z,985.91
2022-12-11T07:40:03.861Z,985.96
2022-12-11T07:41:03.862Z,985.97
2022-12-11T07:42:03.834Z,985.99
2022-12-11T07:43:03.913Z,986.00
2022-12-11T07:44:03.845Z,986.01
2022-12-11T07:45:03.805Z,986.02
2022-12-11T07:46:03.842Z,986.03
2022-12-11T07:47:03.771Z,986.05
2022-12-11T07:48:03.755Z,986.00
2022-12-11T07:49:03.785Z,986.01
2022-12-11T07:50:03.930Z,985.97
2022-12-11T07:51:04.676Z,985.99
2022-12-11T07:52:03.704Z,985.97
2022-12-11T07:53:03.699Z,986.00
2022-12-11T07:54:03.709Z,986.02
2022-12-11T07:55:03.682Z,985.99
2022-12-11T07:56:03.694Z,986.01
2022-12-11T07:57:03.669Z,986.01
2022-12-11T07:58:03.629Z,986.02
2022-12-11T07:59:03.678Z,986.06
2022-12-11T08:00:03.607Z,986.06
2022-12-11T08:01:03.616Z,986.05
2022-12-11T08:02:03.614Z,986.02
2022-12-11T08:03:03.582Z,986.05
2022-12-11T08:04:03.563Z,985.98
2022-12-11T08:05:03.577Z,985.99
2022-12-11T08:06:03.629Z,985.99
2022-12-11T08:07:03.529Z,985.99
2022-12-11T08:08:03.543Z,986.00
2022-12-11T08:09:03.496Z,985.98
2022-12-11T08:10:03.497Z,985.95
2022-12-11T08:11:03.490Z,985.95
2022-12-11T08:12:03.447Z,985.96
2022-12-11T08:13:03.436Z,985.95
2022-12-11T08:14:03.427Z,985.97
2022-12-11T08:15:03.459Z,986.00
2022-12-11T08:16:03.406Z,985.98
2022-12-11T08:17:03.429Z,986.02
2022-12-11T08:18:03.385Z,986.03
2022-12-11T08:19:03.396Z,986.01
2022-12-11T08:20:03.383Z,986.03
2022-12-11T08:21:03.356Z,986.01
2022-12-11T08:22:03.332Z,986.03
2022-12-11T08:23:03.334Z,986.01
2022-12-11T08:24:03.298Z,986.03
2022-12-11T08:25:03.347Z,986.01
2022-12-11T08:26:03.288Z,986.03
2022-12-11T08:27:03.269Z,985.98
2022-12-11T08:28:03.254Z,986.04
2022-12-11T08:29:03.244Z,986.00
2022-12-11T08:30:03.254Z,986.00
2022-12-11T08:31:03.266Z,986.02
2022-12-11T08:32:07.577Z,986.00
2022-12-11T08:33:04.196Z,986.04
2022-12-11T08:34:03.174Z,986.02
2022-12-11T08:35:03.202Z,986.02
2022-12-11T08:36:03.143Z,986.05
2022-12-11T08:37:03.152Z,986.06
2022-12-11T08:38:03.183Z,986.08
2022-12-11T08:39:03.131Z,986.03
2022-12-11T08:40:03.144Z,986.08
2022-12-11T08:41:03.092Z,986.03
2022-12-11T08:42:03.071Z,986.00
2022-12-11T08:43:03.125Z,986.03
2022-12-11T08:44:04.660Z,985.98
2022-12-11T08:45:03.089Z,985.98
2022-12-11T08:46:03.300Z,985.96
2022-12-11T08:47:03.037Z,985.97
2022-12-11T08:48:03.013Z,986.00
2022-12-11T08:49:03.011Z,985.98
2022-12-11T08:50:03.020Z,986.00
2022-12-11T08:51:03.059Z,985.95
2022-12-11T08:52:02.965Z,985.96
2022-12-11T08:53:03.076Z,985.96
2022-12-11T08:54:02.919Z,986.02
2022-12-11T08:55:02.956Z,986.03
2022-12-11T08:56:03.028Z,986.06
2022-12-11T08:57:02.892Z,986.04
2022-12-11T08:58:02.889Z,986.08
2022-12-11T08:59:02.895Z,986.10
2022-12-11T09:00:02.889Z,986.08
2022-12-11T09:01:02.886Z,986.07
2022-12-11T09:02:02.827Z,986.08
2022-12-11T09:03:02.825Z,986.06
2022-12-11T09:04:02.835Z,986.03
2022-12-11T09:05:02.842Z,986.02
2022-12-11T09:06:02.796Z,986.04
2022-12-11T09:07:02.765Z,986.04
2022-12-11T09:08:02.829Z,986.09
2022-12-11T09:09:02.749Z,986.03
2022-12-11T09:10:02.844Z,986.02
2022-12-11T09:11:02.726Z,985.99
2022-12-11T09:12:02.835Z,986.00
2022-12-11T09:13:03.603Z,986.02
2022-12-11T09:14:07.285Z,986.04
2022-12-11T09:15:03.751Z,986.01
2022-12-11T09:16:02.730Z,986.02
2022-12-11T09:17:02.703Z,986.00
2022-12-11T09:18:02.752Z,985.99
2022-12-11T09:19:03.298Z,985.99
2022-12-11T09:20:02.646Z,986.02
2022-12-11T09:21:02.601Z,985.95
2022-12-11T09:22:02.586Z,986.03
2022-12-11T09:23:03.343Z,985.98
2022-12-11T09:24:02.579Z,985.99
2022-12-11T09:25:02.573Z,986.05
2022-12-11T09:26:02.524Z,986.01
2022-12-11T09:27:02.530Z,986.00
2022-12-11T09:28:02.494Z,985.93
2022-12-11T09:29:02.482Z,985.99
2022-12-11T09:30:02.593Z,986.00
2022-12-11T09:31:02.607Z,986.00
2022-12-11T09:32:02.441Z,986.01
2022-12-11T09:33:02.447Z,986.06
2022-12-11T09:34:02.442Z,986.06
2022-12-11T09:35:02.440Z,986.03
2022-12-11T09:36:02.415Z,986.04
2022-12-11T09:37:03.152Z,986.00
2022-12-11T09:38:02.381Z,986.01
2022-12-11T09:39:02.379Z,985.99
2022-12-11T09:40:07.526Z,986.02
2022-12-11T09:41:02.352Z,986.00
2022-12-11T09:42:02.459Z,985.99
2022-12-11T09:43:03.055Z,985.99
2022-12-11T09:44:02.298Z,985.97
2022-12-11T09:45:02.326Z,985.95
2022-12-11T09:46:03.282Z,985.96
2022-12-11T09:47:02.260Z,985.88
2022-12-11T09:48:02.273Z,985.91
2022-12-11T09:49:02.229Z,985.92
2022-12-11T09:50:02.247Z,985.89
2022-12-11T09:51:02.210Z,985.86
2022-12-11T09:52:02.233Z,985.84
2022-12-11T09:53:02.193Z,985.88
2022-12-11T09:54:02.178Z,985.87
2022-12-11T09:55:02.481Z,985.88
2022-12-11T09:56:02.149Z,985.82
2022-12-11T09:57:02.158Z,985.83
2022-12-11T09:58:02.123Z,985.82
2022-12-11T09:59:02.115Z,985.81
2022-12-11T10:00:05.196Z,985.79
2022-12-11T10:01:02.237Z,985.85
2022-12-11T10:02:02.066Z,985.77
2022-12-11T10:03:02.175Z,985.79
2022-12-11T10:04:02.055Z,985.78
2022-12-11T10:05:02.156Z,985.78
2022-12-11T10:06:04.920Z,985.73
2022-12-11T10:07:02.034Z,985.75
2022-12-11T10:08:02.089Z,985.79
2022-12-11T10:09:01.984Z,985.73
2022-12-11T10:10:01.995Z,985.72
2022-12-11T10:11:01.963Z,985.76
2022-12-11T10:12:01.948Z,985.71
2022-12-11T10:13:01.964Z,985.73
2022-12-11T10:14:01.919Z,985.78
2022-12-11T10:15:01.979Z,985.75
2022-12-11T10:16:01.941Z,985.75
2022-12-11T10:17:01.944Z,985.73
2022-12-11T10:18:05.162Z,985.71
2022-12-11T10:19:01.859Z,985.78
2022-12-11T10:20:01.871Z,985.74
2022-12-11T10:21:01.854Z,985.72
2022-12-11T10:22:01.827Z,985.74
2022-12-11T10:23:01.966Z,985.70
2022-12-11T10:24:01.802Z,985.72
2022-12-11T10:25:17.054Z,985.68
2022-12-11T10:26:02.775Z,985.70
2022-12-11T10:27:01.763Z,985.68
2022-12-11T10:28:01.741Z,985.68
2022-12-11T10:29:01.822Z,985.70
2022-12-11T10:30:01.778Z,985.68
2022-12-11T10:31:01.746Z,985.69
2022-12-11T10:32:01.701Z,985.64
2022-12-11T10:33:01.701Z,985.67
2022-12-11T10:34:01.862Z,985.65
2022-12-11T10:35:01.677Z,985.69
2022-12-11T10:36:01.651Z,985.70
2022-12-11T10:37:01.632Z,985.68
2022-12-11T10:38:01.631Z,985.67
2022-12-11T10:39:01.640Z,985.69
2022-12-11T10:40:01.680Z,985.65
2022-12-11T10:41:01.581Z,985.60
2022-12-11T10:42:01.659Z,985.61
2022-12-11T10:43:02.225Z,985.60
2022-12-11T10:44:01.548Z,985.64
2022-12-11T10:45:01.567Z,985.64
2022-12-11T10:46:01.553Z,985.64
2022-12-11T10:47:01.571Z,985.63
2022-12-11T10:48:01.496Z,985.62
2022-12-11T10:49:01.606Z,985.66
2022-12-11T10:50:01.527Z,985.65
2022-12-11T10:51:01.457Z,985.63
2022-12-11T10:52:01.451Z,985.65
2022-12-11T10:53:01.508Z,985.67
2022-12-11T10:54:05.668Z,985.67
2022-12-11T10:55:02.426Z,985.66
2022-12-11T10:56:01.513Z,985.62
2022-12-11T10:57:01.387Z,985.70
2022-12-11T10:58:01.358Z,985.67
2022-12-11T10:59:01.345Z,985.64
2022-12-11T11:00:01.366Z,985.70
2022-12-11T11:01:01.323Z,985.71
2022-12-11T11:02:01.373Z,985.71
2022-12-11T11:03:01.342Z,985.72
2022-12-11T11:04:01.326Z,985.72
2022-12-11T11:05:01.309Z,985.69
2022-12-11T11:06:01.267Z,985.73
2022-12-11T11:07:01.254Z,985.68
2022-12-11T11:08:01.283Z,985.71
2022-12-11T11:09:01.252Z,985.69
2022-12-11T11:10:01.361Z,985.68
2022-12-11T11:11:01.904Z,985.66
2022-12-11T11:12:07.446Z,985.67
2022-12-11T11:13:02.185Z,985.65
2022-12-11T11:14:01.205Z,985.61
2022-12-11T11:15:01.180Z,985.63
2022-12-11T11:16:01.238Z,985.61
2022-12-11T11:17:01.261Z,985.60
2022-12-11T11:18:01.116Z,985.54
2022-12-11T11:19:01.133Z,985.53
2022-12-11T11:20:01.230Z,985.54
2022-12-11T11:21:02.042Z,985.56
2022-12-11T11:22:01.291Z,985.57
2022-12-11T11:23:01.112Z,985.57
2022-12-11T11:24:02.511Z,985.55
2022-12-11T11:25:01.052Z,985.54
2022-12-11T11:26:01.021Z,985.45
2022-12-11T11:27:16.257Z,985.45
2022-12-11T11:28:01.983Z,985.47
2022-12-11T11:29:01.070Z,985.43
2022-12-11T11:30:01.160Z,985.41
2022-12-11T11:31:00.980Z,985.41
2022-12-11T11:32:01.044Z,985.41
2022-12-11T11:33:00.963Z,985.35
2022-12-11T11:34:01.026Z,985.38
2022-12-11T11:35:01.029Z,985.43
2022-12-11T11:36:00.910Z,985.41
2022-12-11T11:37:01.781Z,985.42
2022-12-11T11:38:00.967Z,985.39
2022-12-11T11:39:01.006Z,985.39
2022-12-11T11:40:01.196Z,985.40
2022-12-11T11:41:05.674Z,985.40
2022-12-11T11:42:01.897Z,985.40
2022-12-11T11:43:00.812Z,985.38
2022-12-11T11:44:00.899Z,985.36
2022-12-11T11:45:00.887Z,985.42
2022-12-11T11:46:00.817Z,985.39
2022-12-11T11:47:00.822Z,985.37
2022-12-11T11:48:01.644Z,985.37
2022-12-11T11:49:00.857Z,985.37
2022-12-11T11:50:00.807Z,985.33
2022-12-11T11:51:00.916Z,985.28
2022-12-11T11:52:00.759Z,985.31
2022-12-11T11:53:00.730Z,985.27
2022-12-11T11:54:00.717Z,985.26
2022-12-11T11:55:00.688Z,985.25
2022-12-11T11:56:00.845Z,985.24
2022-12-11T11:57:00.740Z,985.26
2022-12-11T11:58:00.687Z,985.24
2022-12-11T11:59:00.675Z,985.24
2022-12-11T12:00:00.626Z,985.21
2022-12-11T12:01:01.932Z,985.20
2022-12-11T12:02:00.560Z,985.21
2022-12-11T12:03:00.653Z,985.23
2022-12-11T12:04:00.623Z,985.19
2022-12-11T12:05:00.564Z,985.17
2022-12-11T12:06:00.791Z,985.20
2022-12-11T12:07:00.594Z,985.18
2022-12-11T12:08:00.717Z,985.20
2022-12-11T12:09:00.607Z,985.19
2022-12-11T12:10:01.107Z,985.17
2022-12-11T12:11:00.603Z,985.13
2022-12-11T12:12:00.490Z,985.18
2022-12-11T12:13:00.494Z,985.15
2022-12-11T12:14:00.495Z,985.15
2022-12-11T12:15:00.412Z,985.17
2022-12-11T12:16:00.490Z,985.11
2022-12-11T12:17:00.433Z,985.15
2022-12-11T12:18:00.424Z,985.14
2022-12-11T12:19:00.462Z,985.15
2022-12-11T12:20:00.321Z,985.18
2022-12-11T12:21:00.389Z,985.13
2022-12-11T12:22:00.305Z,985.23
2022-12-11T12:23:00.304Z,985.25
2022-12-11T12:24:00.282Z,985.22
2022-12-11T12:25:00.276Z,985.22
2022-12-11T12:26:00.280Z,985.24
2022-12-11T12:27:00.372Z,985.20
2022-12-11T12:28:00.389Z,985.20